createdAt,value
2023-02-20T00:01:01.457Z,-3.20
2023-02-20T00:03:28.725Z,-3.21
2023-02-20T00:05:55.973Z,-3.20
2023-02-20T00:08:26.501Z,-3.20
2023-02-20T00:14:12.583Z,-3.16
2023-02-20T00:16:55.927Z,-3.14
2023-02-20T00:19:23.177Z,-3.15
2023-02-20T00:21:53.064Z,-3.15
2023-02-20T00:24:31.581Z,-3.15
2023-02-20T00:27:01.760Z,-3.13
2023-02-20T00:29:44.793Z,-3.12
2023-02-20T00:32:13.158Z,-3.10
2023-02-20T00:34:43.079Z,-3.10
2023-02-20T00:37:13.201Z,-3.12
2023-02-20T00:39:41.001Z,-3.11
2023-02-20T00:42:12.130Z,-3.12
2023-02-20T00:44:42.151Z,-3.12
2023-02-20T00:47:09.423Z,-3.13
2023-02-20T00:49:36.538Z,-3.16
2023-02-20T00:52:26.212Z,-3.16
2023-02-20T00:54:53.459Z,-3.15
2023-02-20T00:57:20.827Z,-3.13
2023-02-20T00:59:55.440Z,-3.12
2023-02-20T01:02:25.847Z,-3.11
2023-02-20T01:05:00.973Z,-3.09
2023-02-20T01:07:30.404Z,-3.08
2023-02-20T01:10:08.841Z,-3.09
2023-02-20T01:12:41.779Z,-3.13
2023-02-20T01:15:18.445Z,-3.17
2023-02-20T01:17:46.448Z,-3.21
2023-02-20T01:20:13.600Z,-3.20
2023-02-20T01:22:49.397Z,-3.24
2023-02-20T01:25:16.878Z,-3.26
2023-02-20T01:27:44.593Z,-3.27
2023-02-20T01:30:25.960Z,-3.28
2023-02-20T01:32:53.019Z,-3.26
2023-02-20T01:35:20.005Z,-3.23
2023-02-20T01:37:46.948Z,-3.23
2023-02-20T01:40:16.435Z,-3.22
2023-02-20T01:42:43.342Z,-3.24
2023-02-20T01:45:27.649Z,-3.26
2023-02-20T01:47:57.365Z,-3.29
2023-02-20T01:50:29.809Z,-3.30
2023-02-20T01:52:59.347Z,-3.32
2023-02-20T01:55:44.656Z,-3.33
2023-02-20T01:58:17.767Z,-3.36
2023-02-20T02:00:44.794Z,-3.39
2023-02-20T02:03:31.680Z,-3.39
2023-02-20T02:06:00.523Z,-3.39
2023-02-20T02:08:28.837Z,-3.40
2023-02-20T02:11:04.001Z,-3.42
2023-02-20T02:13:35.371Z,-3.46
2023-02-20T02:16:21.385Z,-3.48
2023-02-20T02:19:05.330Z,-3.50
2023-02-20T02:21:55.245Z,-3.52
2023-02-20T02:24:24.373Z,-3.53
2023-02-20T02:27:10.166Z,-3.52
2023-02-20T02:29:55.919Z,-3.51
2023-02-20T02:32:41.446Z,-3.52
2023-02-20T02:35:08.310Z,-3.50
2023-02-20T02:37:35.055Z,-3.49
2023-02-20T02:40:20.870Z,-3.47
2023-02-20T02:43:02.968Z,-3.44
2023-02-20T02:45:38.133Z,-3.45
2023-02-20T02:48:08.226Z,-3.46
2023-02-20T02:50:37.159Z,-3.49
2023-02-20T02:53:04.936Z,-3.50
2023-02-20T02:55:33.977Z,-3.52
2023-02-20T02:58:01.557Z,-3.53
2023-02-20T03:00:44.033Z,-3.53
2023-02-20T03:03:21.219Z,-3.54
2023-02-20T03:05:55.506Z,-3.56
2023-02-20T03:08:22.566Z,-3.60
2023-02-20T03:10:53.559Z,-3.63
2023-02-20T03:13:44.352Z,-3.66
2023-02-20T03:16:14.914Z,-3.71
2023-02-20T03:18:42.112Z,-3.77
2023-02-20T03:21:15.815Z,-3.80
2023-02-20T03:23:45.345Z,-3.85
2023-02-20T03:26:18.854Z,-3.88
2023-02-20T03:28:59.155Z,-3.88
2023-02-20T03:31:29.258Z,-3.91
2023-02-20T03:34:24.605Z,-3.92
2023-02-20T03:37:14.243Z,-3.94
2023-02-20T03:40:04.240Z,-3.95
2023-02-20T03:42:53.698Z,-3.98
2023-02-20T03:45:28.204Z,-4.00
2023-02-20T03:47:57.842Z,-4.01
2023-02-20T03:50:47.016Z,-3.98
2023-02-20T03:53:17.823Z,-3.94
2023-02-20T03:55:46.460Z,-3.93
2023-02-20T03:58:14.855Z,-3.93
2023-02-20T04:00:45.446Z,-3.95
2023-02-20T04:03:16.566Z,-3.98
2023-02-20T04:05:47.934Z,-4.03
2023-02-20T04:08:23.851Z,-4.02
2023-02-20T04:11:00.121Z,-4.02
2023-02-20T04:13:27.559Z,-4.03
2023-02-20T04:15:57.192Z,-4.00
2023-02-20T04:18:24.465Z,-3.98
2023-02-20T04:20:56.131Z,-3.98
2023-02-20T04:23:35.365Z,-4.01
2023-02-20T04:26:08.524Z,-4.04
2023-02-20T04:28:37.823Z,-4.04
2023-02-20T04:31:07.514Z,-4.03
2023-02-20T04:33:36.562Z,-3.99
2023-02-20T04:36:09.327Z,-3.97
2023-02-20T04:38:36.599Z,-3.95
2023-02-20T04:41:06.664Z,-3.94
2023-02-20T04:43:33.545Z,-3.94
2023-02-20T04:46:00.843Z,-3.94
2023-02-20T04:48:28.292Z,-3.91
2023-02-20T04:50:58.364Z,-3.91
2023-02-20T04:53:26.705Z,-3.90
2023-02-20T04:55:53.621Z,-3.90
2023-02-20T04:58:23.991Z,-3.91
2023-02-20T05:01:11.221Z,-3.93
2023-02-20T05:03:38.192Z,-3.94
2023-02-20T05:06:05.226Z,-3.92
2023-02-20T05:08:32.576Z,-3.88
2023-02-20T05:10:59.742Z,-3.85
2023-02-20T05:13:26.743Z,-3.81
2023-02-20T05:15:53.837Z,-3.80
2023-02-20T05:18:24.700Z,-3.76
2023-02-20T05:21:10.461Z,-3.76
2023-02-20T05:23:37.798Z,-3.73
2023-02-20T05:26:12.442Z,-3.72
2023-02-20T05:28:43.092Z,-3.69
2023-02-20T05:31:09.908Z,-3.66
2023-02-20T05:33:36.948Z,-3.64
2023-02-20T05:36:04.336Z,-3.61
2023-02-20T05:38:31.390Z,-3.59
2023-02-20T05:41:00.033Z,-3.58
2023-02-20T05:43:27.910Z,-3.57
2023-02-20T05:45:56.910Z,-3.57
2023-02-20T05:48:24.158Z,-3.50
2023-02-20T05:50:51.486Z,-3.49
2023-02-20T05:53:18.957Z,-3.47
2023-02-20T05:55:48.810Z,-3.42
2023-02-20T05:58:18.101Z,-3.41
2023-02-20T06:00:45.432Z,-3.40
2023-02-20T06:03:16.893Z,-3.41
2023-02-20T06:05:47.243Z,-3.41
2023-02-20T06:08:16.347Z,-3.39
2023-02-20T06:10:43.664Z,-3.38
2023-02-20T06:13:11.054Z,-3.39
2023-02-20T06:15:38.600Z,-3.37
2023-02-20T06:18:06.370Z,-3.35
2023-02-20T06:20:38.123Z,-3.33
2023-02-20T06:23:06.200Z,-3.34
2023-02-20T06:25:33.693Z,-3.35
2023-02-20T06:28:01.520Z,-3.31
2023-02-20T06:30:28.709Z,-3.26
2023-02-20T06:32:56.531Z,-3.20
2023-02-20T06:35:24.293Z,-3.15
2023-02-20T06:37:51.551Z,-3.12
2023-02-20T06:40:18.733Z,-3.07
2023-02-20T06:42:50.772Z,-3.06
2023-02-20T06:45:22.534Z,-3.04
2023-02-20T06:47:50.123Z,-2.97
2023-02-20T06:50:17.754Z,-2.92
2023-02-20T06:52:44.968Z,-2.90
2023-02-20T06:55:12.059Z,-2.85
2023-02-20T06:57:40.692Z,-2.81
2023-02-20T07:00:08.508Z,-2.75
2023-02-20T07:02:38.934Z,-2.73
2023-02-20T07:05:12.030Z,-2.70
2023-02-20T07:07:42.717Z,-2.63
2023-02-20T07:10:18.575Z,-2.56
2023-02-20T07:12:47.911Z,-2.52
2023-02-20T07:15:28.549Z,-2.47
2023-02-20T07:18:11.631Z,-2.39
2023-02-20T07:21:01.107Z,-2.33
2023-02-20T07:23:32.018Z,-2.24
2023-02-20T07:25:59.509Z,-2.17
2023-02-20T07:28:31.280Z,-2.11
2023-02-20T07:31:02.897Z,-2.04
2023-02-20T07:33:34.797Z,-1.97
2023-02-20T07:36:02.079Z,-1.89
2023-02-20T07:38:33.910Z,-1.79
2023-02-20T07:41:01.221Z,-1.72
2023-02-20T07:43:30.055Z,-1.67
2023-02-20T07:46:04.805Z,-1.68
2023-02-20T07:48:34.990Z,-1.71
2023-02-20T07:51:02.445Z,-1.74
2023-02-20T07:53:29.905Z,-1.80
2023-02-20T07:55:58.960Z,-1.82
2023-02-20T07:58:26.509Z,-1.84
2023-02-20T08:00:54.686Z,-1.79
2023-02-20T08:03:22.406Z,-1.68
2023-02-20T08:05:50.169Z,-1.55
2023-02-20T08:08:17.765Z,-1.47
2023-02-20T08:10:45.563Z,-1.41
2023-02-20T08:13:12.543Z,-1.35
2023-02-20T08:15:39.812Z,-1.28
2023-02-20T08:18:15.626Z,-1.24
2023-02-20T08:20:50.326Z,-1.25
2023-02-20T08:23:19.205Z,-1.26
2023-02-20T08:25:46.398Z,-1.23
2023-02-20T08:28:26.121Z,-1.20
2023-02-20T08:30:53.300Z,-1.21
2023-02-20T08:33:23.086Z,-1.20
2023-02-20T08:35:55.725Z,-1.15
2023-02-20T08:38:37.159Z,-1.13
2023-02-20T08:41:06.964Z,-1.09
2023-02-20T08:43:44.272Z,-1.04
2023-02-20T08:46:11.734Z,-0.96
2023-02-20T08:48:39.136Z,-0.89
2023-02-20T08:51:09.827Z,-0.86
2023-02-20T08:53:38.564Z,-0.84
2023-02-20T08:56:06.830Z,-0.82
2023-02-20T08:58:35.063Z,-0.79
2023-02-20T09:01:02.221Z,-0.74
2023-02-20T09:03:30.225Z,-0.66
2023-02-20T09:06:00.453Z,-0.58
2023-02-20T09:08:28.245Z,-0.52
2023-02-20T09:10:55.406Z,-0.49
2023-02-20T09:13:23.766Z,-0.47
2023-02-20T09:15:52.389Z,-0.45
2023-02-20T09:18:19.750Z,-0.41
2023-02-20T09:20:48.438Z,-0.36
2023-02-20T09:23:15.967Z,-0.33
2023-02-20T09:25:43.441Z,-0.29
2023-02-20T09:28:10.658Z,-0.39
2023-02-20T09:30:38.019Z,-0.52
2023-02-20T09:33:05.513Z,-0.63
2023-02-20T09:35:33.255Z,-0.76
2023-02-20T09:38:11.281Z,-0.92
2023-02-20T09:40:46.130Z,-1.15
2023-02-20T09:43:18.670Z,-1.34
2023-02-20T09:45:58.766Z,-1.46
2023-02-20T09:48:38.548Z,-1.53
2023-02-20T09:51:14.954Z,-1.63
2023-02-20T09:53:44.995Z,-1.72
2023-02-20T09:56:16.334Z,-1.78
2023-02-20T09:58:54.522Z,-1.82
2023-02-20T10:01:23.515Z,-1.83
2023-02-20T10:03:53.546Z,-1.90
2023-02-20T10:06:21.903Z,-1.96
2023-02-20T10:08:50.568Z,-1.95
2023-02-20T10:11:26.716Z,-1.87
2023-02-20T10:14:00.867Z,-1.75
2023-02-20T10:16:51.196Z,-1.69
2023-02-20T10:19:36.728Z,-1.63
2023-02-20T10:22:03.741Z,-1.68
2023-02-20T10:24:49.641Z,-1.71
2023-02-20T10:27:46.872Z,-1.66
2023-02-20T10:30:16.064Z,-1.68
2023-02-20T10:32:45.727Z,-1.71
2023-02-20T10:35:18.797Z,-1.83
2023-02-20T10:37:48.788Z,-1.94
2023-02-20T10:40:34.735Z,-1.97
2023-02-20T10:43:05.203Z,-2.03
2023-02-20T10:45:42.713Z,-1.95
2023-02-20T10:48:11.081Z,-1.84
2023-02-20T10:50:45.635Z,-1.81
2023-02-20T10:53:27.928Z,-1.74
2023-02-20T10:56:09.391Z,-1.68
2023-02-20T10:58:55.239Z,-1.63
2023-02-20T11:01:24.007Z,-1.69
2023-02-20T11:04:05.078Z,-1.73
2023-02-20T11:06:59.868Z,-1.77
2023-02-20T11:09:37.415Z,-1.88
2023-02-20T11:12:32.653Z,-1.88
2023-02-20T11:15:26.245Z,-1.81
2023-02-20T11:17:54.507Z,-1.71
2023-02-20T11:20:31.321Z,-1.68
2023-02-20T11:22:59.007Z,-1.72
2023-02-20T11:25:30.472Z,-1.78
2023-02-20T11:27:58.638Z,-1.88
2023-02-20T11:30:36.129Z,-2.01
2023-02-20T11:33:03.638Z,-2.09
2023-02-20T11:35:33.621Z,-2.16
2023-02-20T11:38:18.796Z,-2.21
2023-02-20T11:40:47.655Z,-2.30
2023-02-20T11:43:14.437Z,-2.37
2023-02-20T11:45:42.020Z,-2.47
2023-02-20T11:48:10.747Z,-2.58
2023-02-20T11:50:40.849Z,-2.68
2023-02-20T11:53:17.537Z,-2.87
2023-02-20T11:55:54.915Z,-3.03
2023-02-20T11:58:27.578Z,-3.13
2023-02-20T12:00:55.639Z,-3.21
2023-02-20T12:03:28.677Z,-3.31
2023-02-20T12:05:56.083Z,-3.44
2023-02-20T12:08:22.869Z,-3.52
2023-02-20T12:10:52.545Z,-3.59
2023-02-20T12:13:19.378Z,-3.64
2023-02-20T12:15:58.895Z,-3.68
2023-02-20T12:18:25.975Z,-3.67
2023-02-20T12:21:02.353Z,-3.64
2023-02-20T12:23:44.639Z,-3.61
2023-02-20T12:26:30.449Z,-3.55
2023-02-20T12:29:12.628Z,-3.51
2023-02-20T12:31:42.826Z,-3.49
2023-02-20T12:34:10.180Z,-3.48
2023-02-20T12:36:40.034Z,-3.46
2023-02-20T12:39:13.947Z,-3.45
2023-02-20T12:41:55.107Z,-3.45
2023-02-20T12:44:23.230Z,-3.46
2023-02-20T12:46:53.312Z,-3.49
2023-02-20T12:49:41.625Z,-3.52
2023-02-20T12:52:08.415Z,-3.55
2023-02-20T12:54:44.464Z,-3.62
2023-02-20T12:57:23.484Z,-3.66
2023-02-20T13:00:01.590Z,-3.66
2023-02-20T13:02:42.284Z,-3.67
2023-02-20T13:05:15.643Z,-3.66
2023-02-20T13:07:45.560Z,-3.72
2023-02-20T13:10:23.201Z,-3.76
2023-02-20T13:12:51.321Z,-3.78
2023-02-20T13:15:38.671Z,-3.79
2023-02-20T13:18:22.678Z,-3.81
2023-02-20T13:20:55.225Z,-3.82
2023-02-20T13:23:22.328Z,-3.81
2023-02-20T13:25:50.712Z,-3.81
2023-02-20T13:28:20.763Z,-3.82
2023-02-20T13:31:08.210Z,-3.83
2023-02-20T13:33:37.490Z,-3.83
2023-02-20T13:36:05.761Z,-3.82
2023-02-20T13:38:33.292Z,-3.80
2023-02-20T13:41:09.853Z,-3.79
2023-02-20T13:43:37.468Z,-3.83
2023-02-20T13:46:10.616Z,-3.87
2023-02-20T13:48:37.675Z,-3.94
2023-02-20T13:51:16.735Z,-3.99
2023-02-20T13:53:46.873Z,-4.04
2023-02-20T13:56:17.062Z,-4.08
2023-02-20T13:58:44.964Z,-4.12
2023-02-20T14:01:12.304Z,-4.15
2023-02-20T14:03:39.381Z,-4.20
2023-02-20T14:06:08.365Z,-4.26
2023-02-20T14:08:36.654Z,-4.32
2023-02-20T14:11:10.438Z,-4.37
2023-02-20T14:13:42.387Z,-4.41
2023-02-20T14:20:13.439Z,-4.47
2023-02-20T14:22:41.431Z,-4.50
2023-02-20T14:25:17.577Z,-4.53
2023-02-20T14:27:45.410Z,-4.59
2023-02-20T14:30:14.215Z,-4.61
2023-02-20T14:32:52.052Z,-4.61
2023-02-20T14:35:33.123Z,-4.65
2023-02-20T14:38:07.452Z,-4.66
2023-02-20T14:40:37.216Z,-4.66
2023-02-20T14:43:09.321Z,-4.65
2023-02-20T14:45:36.304Z,-4.65
2023-02-20T14:48:05.100Z,-4.65
2023-02-20T14:50:34.697Z,-4.65
2023-02-20T14:53:21.774Z,-4.63
2023-02-20T14:55:52.109Z,-4.62
2023-02-20T14:58:20.805Z,-4.61
2023-02-20T15:00:54.212Z,-4.61
2023-02-20T15:03:30.300Z,-4.65
2023-02-20T15:06:33.526Z,-4.64
2023-02-20T15:09:39.118Z,-4.70
2023-02-20T15:12:18.936Z,-4.74
2023-02-20T15:14:46.137Z,-4.76
2023-02-20T15:17:13.085Z,-4.76
2023-02-20T15:19:41.414Z,-4.76
2023-02-20T15:22:27.210Z,-4.76
2023-02-20T15:24:54.560Z,-4.77
2023-02-20T15:27:27.590Z,-4.77
2023-02-20T15:30:09.509Z,-4.75
2023-02-20T15:32:39.317Z,-4.75
2023-02-20T15:35:06.620Z,-4.77
2023-02-20T15:37:38.899Z,-4.78
2023-02-20T15:40:29.150Z,-4.79
2023-02-20T15:43:04.409Z,-4.78
2023-02-20T15:45:32.086Z,-4.77
2023-02-20T15:47:59.421Z,-4.75
2023-02-20T15:50:27.527Z,-4.71
2023-02-20T15:52:55.122Z,-4.69
2023-02-20T15:55:23.081Z,-4.69
2023-02-20T15:57:51.191Z,-4.65
2023-02-20T16:00:23.015Z,-4.62
2023-02-20T16:02:54.128Z,-4.59
2023-02-20T16:05:21.327Z,-4.57
2023-02-20T16:08:14.107Z,-4.58
2023-02-20T16:10:41.581Z,-4.56
2023-02-20T16:13:34.350Z,-4.58
2023-02-20T16:16:30.260Z,-4.61
2023-02-20T16:19:42.079Z,-4.62
2023-02-20T16:22:15.173Z,-4.67
2023-02-20T16:24:56.880Z,-4.70
2023-02-20T16:34:10.506Z,-4.78
2023-02-20T16:42:20.908Z,-4.78
2023-02-20T16:45:21.384Z,-4.80
2023-02-20T16:54:36.471Z,-4.87
2023-02-20T16:57:29.924Z,-4.94
2023-02-20T17:00:12.639Z,-4.98
2023-02-20T17:03:35.210Z,-5.00
2023-02-20T17:06:02.231Z,-5.00
2023-02-20T17:08:29.365Z,-5.00
2023-02-20T17:11:05.695Z,-5.02
2023-02-20T17:13:32.857Z,-5.01
2023-02-20T17:15:59.918Z,-5.02
2023-02-20T17:18:30.402Z,-5.02
2023-02-20T17:21:15.043Z,-5.03
2023-02-20T17:23:51.104Z,-5.04
2023-02-20T17:26:18.400Z,-5.03
2023-02-20T17:28:52.491Z,-5.02
2023-02-20T17:31:23.194Z,-5.00
2023-02-20T17:33:51.322Z,-5.04
2023-02-20T17:36:45.596Z,-5.07
2023-02-20T17:39:19.228Z,-5.07
2023-02-20T17:41:46.911Z,-5.07
2023-02-20T17:44:18.775Z,-5.08
2023-02-20T17:46:56.761Z,-5.08
2023-02-20T17:49:32.191Z,-5.10
2023-02-20T17:52:00.364Z,-5.08
2023-02-20T17:54:28.546Z,-5.03
2023-02-20T17:57:03.782Z,-5.02
2023-02-20T17:59:43.221Z,-5.02
2023-02-20T18:02:14.210Z,-5.03
2023-02-20T18:04:42.761Z,-5.01
2023-02-20T18:07:12.918Z,-5.02
2023-02-20T18:09:41.091Z,-5.02
2023-02-20T18:12:10.446Z,-5.01
2023-02-20T18:14:43.484Z,-4.96
2023-02-20T18:17:12.386Z,-4.90
2023-02-20T18:19:45.641Z,-4.87
2023-02-20T18:22:16.617Z,-4.85
2023-02-20T18:24:58.986Z,-4.83
2023-02-20T18:27:35.181Z,-4.81
2023-02-20T18:30:02.508Z,-4.80
2023-02-20T18:32:45.341Z,-4.82
2023-02-20T18:35:16.945Z,-4.84
2023-02-20T18:37:44.424Z,-4.85
2023-02-20T18:40:12.391Z,-4.88
2023-02-20T18:42:40.017Z,-4.89
2023-02-20T18:45:07.151Z,-4.92
2023-02-20T18:47:34.514Z,-4.95
2023-02-20T18:50:02.533Z,-5.00
2023-02-20T18:52:34.641Z,-5.04
2023-02-20T18:55:02.320Z,-5.09
2023-02-20T18:57:29.724Z,-5.11
2023-02-20T18:59:57.063Z,-5.14
2023-02-20T19:02:26.298Z,-5.14
2023-02-20T19:04:58.197Z,-5.15
2023-02-20T19:07:25.409Z,-5.18
2023-02-20T19:09:54.414Z,-5.21
2023-02-20T19:12:21.329Z,-5.26
2023-02-20T19:14:48.214Z,-5.30
2023-02-20T19:17:15.030Z,-5.34
2023-02-20T19:19:42.631Z,-5.39
2023-02-20T19:22:09.568Z,-5.42
2023-02-20T19:24:39.729Z,-5.44
2023-02-20T19:27:06.580Z,-5.45
2023-02-20T19:29:33.421Z,-5.47
2023-02-20T19:32:00.460Z,-5.49
2023-02-20T19:34:27.474Z,-5.50
2023-02-20T19:36:54.861Z,-5.52
2023-02-20T19:39:22.107Z,-5.53
2023-02-20T19:41:49.848Z,-5.55
2023-02-20T19:44:17.172Z,-5.56
2023-02-20T19:46:44.363Z,-5.58
2023-02-20T19:49:13.028Z,-5.59
2023-02-20T19:51:45.224Z,-5.61
2023-02-20T19:54:12.080Z,-5.61
2023-02-20T19:56:38.888Z,-5.60
2023-02-20T19:59:05.684Z,-5.61
2023-02-20T20:01:32.658Z,-5.63
2023-02-20T20:03:59.622Z,-5.68
2023-02-20T20:06:27.288Z,-5.72
2023-02-20T20:09:11.013Z,-5.79
2023-02-20T20:11:40.529Z,-5.85
2023-02-20T20:14:07.318Z,-5.90
2023-02-20T20:16:37.748Z,-5.96
2023-02-20T20:19:05.518Z,-6.03
2023-02-20T20:21:32.729Z,-6.09
2023-02-20T20:23:59.853Z,-6.16
2023-02-20T20:26:27.782Z,-6.19
2023-02-20T20:28:54.655Z,-6.22
2023-02-20T20:31:22.255Z,-6.29
2023-02-20T20:33:49.116Z,-6.33
2023-02-20T20:36:16.527Z,-6.37
2023-02-20T20:38:43.349Z,-6.42
2023-02-20T20:41:11.611Z,-6.46
2023-02-20T20:43:38.663Z,-6.49
2023-02-20T20:46:05.538Z,-6.54
2023-02-20T20:48:32.547Z,-6.59
2023-02-20T20:50:59.461Z,-6.65
2023-02-20T20:53:26.330Z,-6.69
2023-02-20T20:55:58.862Z,-6.70
2023-02-20T20:58:25.827Z,-6.70
2023-02-20T21:00:54.913Z,-6.71
2023-02-20T21:03:21.683Z,-6.73
2023-02-20T21:05:48.883Z,-6.79
2023-02-20T21:08:15.940Z,-6.82
2023-02-20T21:11:01.005Z,-6.81
2023-02-20T21:13:27.866Z,-6.81
2023-02-20T21:15:54.743Z,-6.83
2023-02-20T21:18:21.680Z,-6.87
2023-02-20T21:20:48.411Z,-6.89
2023-02-20T21:23:16.243Z,-6.89
2023-02-20T21:25:43.154Z,-6.89
2023-02-20T21:28:10.016Z,-6.89
2023-02-20T21:30:36.966Z,-6.90
2023-02-20T21:33:04.013Z,-6.93
2023-02-20T21:35:30.782Z,-6.96
2023-02-20T21:37:57.794Z,-6.98
2023-02-20T21:40:24.833Z,-7.00
2023-02-20T21:43:10.291Z,-7.00
2023-02-20T21:45:37.833Z,-6.99
2023-02-20T21:48:05.428Z,-6.97
2023-02-20T21:50:32.248Z,-6.97
2023-02-20T21:52:59.165Z,-6.96
2023-02-20T21:55:26.909Z,-6.95
2023-02-20T21:57:54.142Z,-6.98
2023-02-20T22:00:21.554Z,-7.03
2023-02-20T22:02:48.361Z,-7.04
2023-02-20T22:05:15.121Z,-7.00
2023-02-20T22:08:00.514Z,-6.98
2023-02-20T22:10:46.264Z,-6.97
2023-02-20T22:13:31.616Z,-6.96
2023-02-20T22:16:17.283Z,-6.97
2023-02-20T22:19:04.045Z,-6.97
2023-02-20T22:21:49.487Z,-6.95
2023-02-20T22:24:39.335Z,-6.96
2023-02-20T22:27:25.620Z,-6.98
2023-02-20T22:30:11.238Z,-7.00
2023-02-20T22:32:57.077Z,-7.03
2023-02-20T22:35:44.545Z,-7.04
2023-02-20T22:38:30.604Z,-7.05
2023-02-20T22:41:16.264Z,-7.07
2023-02-20T22:44:02.250Z,-7.10
2023-02-20T22:46:47.662Z,-7.09
2023-02-20T22:49:33.182Z,-7.07
2023-02-20T22:52:18.770Z,-7.12
2023-02-20T22:55:05.817Z,-7.13
2023-02-20T22:57:51.641Z,-7.11
2023-02-20T23:00:37.313Z,-7.08
2023-02-20T23:03:22.809Z,-7.06
2023-02-20T23:06:17.537Z,-7.04
2023-02-20T23:09:03.781Z,-7.07
2023-02-20T23:11:51.594Z,-7.06
2023-02-20T23:14:37.128Z,-7.04
2023-02-20T23:17:34.991Z,-7.05
2023-02-20T23:20:25.490Z,-7.05
2023-02-20T23:23:11.441Z,-7.07
2023-02-20T23:25:57.116Z,-7.07
2023-02-20T23:28:42.505Z,-7.08
2023-02-20T23:31:28.001Z,-7.10
2023-02-20T23:34:13.539Z,-7.09
2023-02-20T23:37:03.465Z,-7.11
2023-02-20T23:39:49.013Z,-7.14
2023-02-20T23:42:35.628Z,-7.16
2023-02-20T23:45:21.485Z,-7.18
2023-02-20T23:48:07.856Z,-7.15
2023-02-20T23:50:53.455Z,-7.14
2023-02-20T23:53:38.978Z,-7.13
2023-02-20T23:56:25.131Z,-7.13
2023-02-20T23:59:10.536Z,-7.12
